Time;durP1;ratioP1;P1;durP2;ratioP2;P2;SDS_P1;SDS_P2;PMS_P1;PMS_P2;Temp;Humidity;BMP_temperature;BMP_pressure;BME280_temperature;BME280_humidity;BME280_pressure;Samples;Min_cycle;Max_cycle;Signal;HPM_P1;HPM_P2
2022/04/25 00:01:54;;;;;;;16.02;7.15;;;;;;;9.33;99.59;101054.88;5092998;28;20028;-71
2022/04/25 00:04:19;;;;;;;15.05;6.70;;;;;;;9.34;99.09;101056.66;5093253;28;20077;-71
2022/04/25 00:06:45;;;;;;;11.45;6.35;;;;;;;9.26;98.58;101043.38;5088761;28;20070;-71
2022/04/25 00:09:10;;;;;;;14.38;7.00;;;;;;;9.26;98.98;101047.72;5088878;28;20028;-71
2022/04/25 00:11:35;;;;;;;13.48;6.43;;;;;;;9.21;99.61;101044.97;5093170;28;20043;-71
2022/04/25 00:14:01;;;;;;;11.55;6.80;;;;;;;9.10;100.00;101036.81;5093414;28;20020;-71
2022/04/25 00:16:26;;;;;;;14.07;6.35;;;;;;;9.19;99.79;101049.28;5093134;28;20024;-71
2022/04/25 00:18:52;;;;;;;12.48;7.22;;;;;;;9.15;99.96;101049.19;5092514;28;20048;-72
2022/04/25 00:21:17;;;;;;;8.80;6.65;;;;;;;9.16;99.75;101045.72;5092896;28;20108;-71
2022/04/25 00:23:43;;;;;;;14.55;7.10;;;;;;;9.16;99.79;101046.59;5092950;28;20047;-71
2022/04/25 00:26:09;;;;;;;10.10;6.72;;;;;;;9.19;99.41;101041.41;5092415;28;20035;-71
2022/04/25 00:28:35;;;;;;;12.13;6.65;;;;;;;9.21;99.38;101044.06;5092753;28;20046;-71
2022/04/25 00:31:00;;;;;;;14.05;6.85;;;;;;;9.21;99.19;101046.69;5092150;28;20028;-71
2022/04/25 00:33:27;;;;;;;13.68;7.30;;;;;;;9.22;99.31;101045.84;5092844;28;20379;-71
2022/04/25 00:35:52;;;;;;;10.27;7.10;;;;;;;9.17;99.40;101042.22;5092621;28;20031;-70
2022/04/25 00:38:18;;;;;;;15.02;7.57;;;;;;;9.09;100.00;101042.03;5092363;28;20155;-71
2022/04/25 00:40:43;;;;;;;11.40;7.55;;;;;;;9.10;100.00;101042.06;5092797;28;20027;-72
2022/04/25 00:43:08;;;;;;;15.50;7.07;;;;;;;9.08;100.00;101048.13;5091068;28;20020;-71
2022/04/25 00:45:34;;;;;;;11.15;7.00;;;;;;;9.05;100.00;101048.94;5092669;28;20027;-71
2022/04/25 00:48:00;;;;;;;12.95;6.65;;;;;;;9.04;100.00;101052.41;5091055;28;20023;-71
2022/04/25 00:50:26;;;;;;;12.15;6.68;;;;;;;9.07;100.00;101052.47;5091863;28;20379;-69
2022/04/25 00:52:51;;;;;;;9.52;6.55;;;;;;;9.05;100.00;101043.69;5092356;28;20024;-71
2022/04/25 00:55:17;;;;;;;18.63;7.15;;;;;;;9.13;100.00;101041.28;5092541;28;20111;-70
2022/04/25 00:57:43;;;;;;;14.75;6.95;;;;;;;9.08;100.00;101042.88;5091814;28;20099;-72
2022/04/25 01:00:11;;;;;;;14.30;7.88;;;;;;;9.01;100.00;101044.47;5092082;28;20051;-72
2022/04/25 01:02:37;;;;;;;13.40;6.50;;;;;;;9.24;100.00;101046.81;5092398;28;20114;-71
2022/04/25 01:05:05;;;;;;;12.25;7.88;;;;;;;9.06;100.00;101040.22;5092252;28;20057;-71
2022/04/25 01:07:31;;;;;;;13.27;7.40;;;;;;;9.03;100.00;101042.75;5091571;28;20031;-71
2022/04/25 01:09:57;;;;;;;13.82;6.90;;;;;;;9.07;100.00;101041.09;5090803;28;20479;-71
2022/04/25 01:12:22;;;;;;;12.20;7.00;;;;;;;9.08;100.00;101038.50;5092216;28;20034;-71
2022/04/25 01:15:00;;;;;;;13.77;7.50;;;;;;;9.03;100.00;101040.13;5090898;28;20043;-71
2022/04/25 01:17:26;;;;;;;18.08;7.63;;;;;;;9.00;100.00;101040.06;5089495;28;20028;-71
2022/04/25 01:19:51;;;;;;;12.40;7.68;;;;;;;8.91;100.00;101034.56;5092064;28;20036;-72
2022/04/25 01:22:19;;;;;;;14.60;8.18;;;;;;;8.98;100.00;101035.59;5089553;28;20028;-71
2022/04/25 01:27:28;;;;;;;17.40;7.57;;;;;;;8.91;100.00;101038.09;5091411;28;20043;-71
2022/04/25 01:29:54;;;;;;;10.07;6.35;;;;;;;8.80;100.00;101031.66;5089718;28;20106;-72
2022/04/25 01:32:21;;;;;;;12.88;6.63;;;;;;;8.76;100.00;101035.94;5091050;28;20471;-71
2022/04/25 01:34:47;;;;;;;15.52;7.78;;;;;;;8.77;100.00;101032.44;5091471;28;20468;-71
2022/04/25 01:37:14;;;;;;;14.07;7.22;;;;;;;8.73;100.00;101030.59;5090853;28;20027;-71
2022/04/25 01:39:45;;;;;;;13.02;7.15;;;;;;;8.67;100.00;101027.81;5093281;28;20028;-71
2022/04/25 01:42:11;;;;;;;10.75;6.80;;;;;;;8.71;100.00;101026.19;5095344;28;20020;-71
2022/04/25 01:44:37;;;;;;;16.30;7.25;;;;;;;8.74;100.00;101027.13;5096855;28;20082;-70
2022/04/25 01:47:03;;;;;;;11.18;6.93;;;;;;;8.75;100.00;101020.16;5097544;28;20085;-70
2022/04/25 01:49:29;;;;;;;15.43;6.85;;;;;;;8.67;100.00;101017.31;5095539;28;21468;-71
2022/04/25 01:51:55;;;;;;;11.75;6.85;;;;;;;8.70;100.00;101016.53;5096055;28;20066;-71
2022/04/25 01:54:25;;;;;;;10.73;7.68;;;;;;;8.73;100.00;101024.47;5095686;28;20103;-70
2022/04/25 01:56:51;;;;;;;13.05;6.72;;;;;;;8.70;100.00;101022.66;5094407;28;20073;-70
2022/04/25 01:59:17;;;;;;;15.65;7.47;;;;;;;8.69;100.00;101020.84;5093719;28;20082;-70
2022/04/25 02:01:43;;;;;;;13.82;6.70;;;;;;;8.62;100.00;101020.69;5095458;28;20064;-70
2022/04/25 02:04:08;;;;;;;16.67;7.40;;;;;;;8.54;100.00;101020.44;5094915;28;20058;-70
2022/04/25 02:06:34;;;;;;;8.57;6.80;;;;;;;8.63;100.00;101018.09;5094060;28;20067;-70
2022/04/25 02:09:00;;;;;;;11.77;7.10;;;;;;;8.66;100.00;101022.53;5094447;28;20039;-70
2022/04/25 02:11:25;;;;;;;12.05;6.45;;;;;;;8.69;100.00;101022.59;5095471;28;20020;-70
2022/04/25 02:13:54;;;;;;;13.80;6.30;;;;;;;8.74;100.00;101024.50;5095887;28;20031;-71
2022/04/25 02:16:21;;;;;;;13.02;7.18;;;;;;;8.80;100.00;101028.16;5094805;28;20097;-71
2022/04/25 02:18:47;;;;;;;10.05;6.43;;;;;;;8.81;100.00;101024.69;5094980;28;20036;-70
2022/04/25 02:21:12;;;;;;;16.02;7.40;;;;;;;8.88;100.00;101021.34;5094313;28;20034;-70
2022/04/25 02:23:38;;;;;;;10.93;7.10;;;;;;;8.87;100.00;101019.56;5095475;28;20498;-71
2022/04/25 02:26:07;;;;;;;14.18;7.05;;;;;;;8.90;100.00;101019.69;5094986;28;20081;-70
2022/04/25 02:28:34;;;;;;;18.13;7.70;;;;;;;9.01;100.00;101020.84;5094638;28;20490;-71
2022/04/25 02:31:00;;;;;;;14.80;7.70;;;;;;;8.97;100.00;101018.06;5094781;28;20028;-70
2022/04/25 02:33:25;;;;;;;10.32;6.78;;;;;;;8.97;100.00;101020.69;5093550;28;20031;-70
2022/04/25 02:35:51;;;;;;;17.15;7.47;;;;;;;9.04;100.00;101028.78;5094911;28;20025;-70
2022/04/25 02:38:17;;;;;;;13.85;7.28;;;;;;;9.06;100.00;101019.22;5094916;28;20051;-71
2022/04/25 02:40:42;;;;;;;13.70;7.70;;;;;;;9.06;100.00;101018.31;5095020;28;20028;-70
2022/04/25 02:43:08;;;;;;;13.73;6.60;;;;;;;9.07;100.00;101018.34;5092908;28;20029;-71
2022/04/25 02:45:35;;;;;;;12.00;7.25;;;;;;;9.04;100.00;101018.28;5086894;28;20453;-71
2022/04/25 02:48:00;;;;;;;13.80;8.02;;;;;;;9.02;100.00;101017.38;5095031;28;20048;-70
2022/04/25 02:50:25;;;;;;;12.82;6.90;;;;;;;8.90;100.00;101019.69;5094588;28;20035;-70
2022/04/25 02:52:53;;;;;;;12.50;7.03;;;;;;;8.88;100.00;101016.13;5094422;28;20426;-70
2022/04/25 02:55:19;;;;;;;16.35;7.25;;;;;;;8.84;100.00;101016.88;5092646;28;20016;-71
2022/04/25 02:57:45;;;;;;;18.67;7.40;;;;;;;8.82;100.00;101019.47;5094145;28;20030;-71
2022/04/25 03:00:11;;;;;;;14.73;7.20;;;;;;;8.76;100.00;101014.94;5093957;28;20032;-70
2022/04/25 03:02:36;;;;;;;16.13;7.80;;;;;;;8.71;100.00;101021.81;5093818;28;20028;-70
2022/04/25 03:05:02;;;;;;;17.15;7.97;;;;;;;8.68;100.00;101016.50;5094590;28;20069;-71
2022/04/25 03:07:27;;;;;;;14.93;7.78;;;;;;;8.76;100.00;101021.91;5094170;28;20028;-70
2022/04/25 03:09:53;;;;;;;13.40;7.22;;;;;;;8.77;100.00;101027.19;5093855;28;20108;-71
2022/04/25 03:12:18;;;;;;;12.63;6.60;;;;;;;8.74;100.00;101019.25;5093628;28;20051;-70
2022/04/25 03:14:45;;;;;;;14.77;6.85;;;;;;;8.76;100.00;101014.03;5094047;28;20063;-71
2022/04/25 03:17:11;;;;;;;17.27;7.53;;;;;;;8.74;100.00;101016.63;5092254;28;20024;-71
2022/04/25 03:19:37;;;;;;;17.85;7.65;;;;;;;8.81;100.00;101024.69;5092778;28;20122;-70
2022/04/25 03:22:04;;;;;;;13.77;7.25;;;;;;;8.95;100.00;101020.66;5092690;28;20024;-71
2022/04/25 03:24:30;;;;;;;14.90;7.15;;;;;;;8.90;100.00;101011.81;5094559;28;20027;-71
2022/04/25 03:26:56;;;;;;;13.60;6.40;;;;;;;8.87;100.00;101016.94;5091985;28;20181;-70
2022/04/25 03:29:21;;;;;;;19.05;6.93;;;;;;;8.87;100.00;101015.25;5092274;28;20127;-71
2022/04/25 03:31:46;;;;;;;23.88;7.60;;;;;;;8.86;100.00;101021.31;5093923;28;20368;-71
2022/04/25 03:34:12;;;;;;;20.85;7.32;;;;;;;8.88;100.00;101016.13;5093979;28;20024;-70
2022/04/25 03:36:37;;;;;;;15.88;7.00;;;;;;;8.87;100.00;101016.94;5092092;28;20071;-71
2022/04/25 03:39:03;;;;;;;13.55;6.95;;;;;;;8.87;100.00;101015.25;5092322;28;20039;-70
2022/04/25 03:41:31;;;;;;;13.55;7.28;;;;;;;8.79;100.00;101014.16;5092170;28;22109;-70
2022/04/25 03:43:56;;;;;;;17.73;8.13;;;;;;;8.79;100.00;101016.78;5092821;28;20027;-70
2022/04/25 03:46:22;;;;;;;15.82;7.93;;;;;;;8.72;100.00;101018.34;5092991;28;20020;-70
2022/04/25 03:48:47;;;;;;;17.80;7.32;;;;;;;8.67;100.00;101022.56;5093173;28;20054;-71
2022/04/25 03:51:13;;;;;;;18.60;7.85;;;;;;;8.68;100.00;101021.72;5092692;28;20472;-70
2022/04/25 03:53:38;;;;;;;13.32;7.13;;;;;;;8.70;100.00;101025.28;5093224;28;20394;-71
2022/04/25 03:58:48;;;;;;;15.23;7.93;;;;;;;8.66;100.00;101014.66;5091657;28;20055;-72
2022/04/25 04:01:14;;;;;;;13.30;7.72;;;;;;;8.61;100.00;101009.28;5092924;28;20020;-71
2022/04/25 04:03:39;;;;;;;18.17;8.07;;;;;;;8.63;100.00;101018.09;5092804;28;20153;-71
2022/04/25 04:06:05;;;;;;;21.45;8.10;;;;;;;8.63;100.00;101023.34;5093290;28;20032;-71
2022/04/25 04:08:31;;;;;;;16.02;7.80;;;;;;;8.68;100.00;101016.50;5092569;28;20107;-71
2022/04/25 04:10:56;;;;;;;17.63;7.10;;;;;;;8.72;100.00;101022.69;5093403;28;20107;-71
2022/04/25 04:13:21;;;;;;;14.82;8.18;;;;;;;8.72;100.00;101027.94;5091997;28;20020;-70
2022/04/25 04:15:47;;;;;;;18.17;8.30;;;;;;;8.82;100.00;101023.81;5091151;28;20077;-70
2022/04/25 04:18:12;;;;;;;20.95;9.52;;;;;;;8.84;100.00;101032.63;5091123;28;20052;-72
2022/04/25 04:20:37;;;;;;;18.42;8.35;;;;;;;8.89;100.00;101036.28;5093469;28;20077;-70
2022/04/25 04:23:04;;;;;;;14.73;8.45;;;;;;;8.93;100.00;101030.25;5090919;28;20468;-70
2022/04/25 04:25:32;;;;;;;22.30;8.75;;;;;;;9.01;100.00;101036.59;5091500;28;20028;-71
2022/04/25 04:27:57;;;;;;;21.00;9.32;;;;;;;8.99;100.00;101033.00;5092618;28;20084;-70
2022/04/25 04:30:22;;;;;;;19.10;8.15;;;;;;;9.01;100.00;101031.34;5091036;28;20389;-70
2022/04/25 04:32:48;;;;;;;17.33;7.95;;;;;;;8.99;100.00;101042.63;5091297;28;20020;-72
2022/04/25 04:36:17;;;;;;;18.67;8.20;;;;;;;9.04;100.00;101041.91;5091056;28;20372;-71
2022/04/25 04:38:02;;;;;;;19.52;8.18;;;;;;;9.00;100.00;101045.31;5092103;28;20407;-71
2022/04/25 04:40:28;;;;;;;16.35;8.75;;;;;;;9.02;100.00;101043.63;5091669;28;20146;-70
2022/04/25 04:42:54;;;;;;;19.83;9.98;;;;;;;9.05;100.00;101048.94;5092499;28;20577;-70
2022/04/25 04:45:20;;;;;;;19.55;9.50;;;;;;;9.06;100.00;101040.22;5092603;28;20031;-70
2022/04/25 04:47:46;;;;;;;18.63;9.55;;;;;;;9.05;100.00;101048.94;5092053;28;20471;-71
2022/04/25 04:50:16;;;;;;;17.42;9.10;;;;;;;9.04;100.00;101046.28;5092681;28;20063;-71
2022/04/25 04:52:52;;;;;;;18.95;10.02;;;;;;;9.08;100.00;101049.00;5092428;28;20027;-70
2022/04/25 04:55:17;;;;;;;22.70;9.82;;;;;;;9.09;100.00;101055.16;5092614;28;20036;-71
2022/04/25 04:57:43;;;;;;;18.40;9.77;;;;;;;9.10;100.00;101056.91;5091700;28;20020;-71
2022/04/25 05:00:11;;;;;;;18.38;9.25;;;;;;;9.14;100.00;101057.91;5090914;28;20466;-70
2022/04/25 05:02:36;;;;;;;24.30;10.65;;;;;;;9.10;100.00;101070.97;5083427;28;20151;-70
2022/04/25 05:05:03;;;;;;;18.55;10.30;;;;;;;9.12;100.00;101073.63;5092006;28;20490;-70
2022/04/25 05:07:29;;;;;;;20.55;10.38;;;;;;;9.14;100.00;101068.41;5086027;28;20099;-70
2022/04/25 05:09:54;;;;;;;21.13;10.55;;;;;;;9.07;100.00;101073.47;5092341;28;20111;-70
2022/04/25 05:12:20;;;;;;;19.23;10.27;;;;;;;9.12;100.00;101081.50;5092531;28;20024;-70
2022/04/25 05:14:46;;;;;;;18.60;10.32;;;;;;;9.06;100.00;101076.97;5096937;28;20069;-71
2022/04/25 05:17:11;;;;;;;23.13;10.27;;;;;;;9.05;100.00;101090.94;5093527;28;20039;-70
2022/04/25 05:19:36;;;;;;;20.30;11.10;;;;;;;9.01;100.00;101083.84;5096632;28;20467;-70
2022/04/25 05:22:02;;;;;;;21.52;11.65;;;;;;;8.95;100.00;101081.03;5094761;28;20074;-71
2022/04/25 05:24:27;;;;;;;19.80;11.60;;;;;;;8.92;100.00;101078.34;5096909;28;20355;-71
2022/04/25 05:26:53;;;;;;;23.90;12.50;;;;;;;8.83;100.00;101084.22;5108062;28;20034;-70
2022/04/25 05:29:18;;;;;;;17.73;11.23;;;;;;;8.81;100.00;101092.91;5093291;28;20047;-70
2022/04/25 05:31:44;;;;;;;17.85;10.25;;;;;;;8.89;100.00;101087.00;5092616;28;20030;-72
2022/04/25 05:34:09;;;;;;;15.68;11.32;;;;;;;8.93;100.00;101095.88;5095715;28;20471;-71
2022/04/25 05:36:35;;;;;;;18.50;11.82;;;;;;;8.89;100.00;101091.38;5095241;28;20031;-70
2022/04/25 05:39:00;;;;;;;23.33;10.77;;;;;;;8.88;100.00;101092.22;5095044;28;20028;-71
2022/04/25 05:41:26;;;;;;;24.33;11.60;;;;;;;8.84;100.00;101106.09;5090941;28;20023;-71
2022/04/25 05:43:52;;;;;;;20.98;10.95;;;;;;;8.80;100.00;101104.25;5094218;28;20115;-70
2022/04/25 05:46:20;;;;;;;25.10;12.05;;;;;;;8.90;100.00;101106.28;5093386;28;20036;-70
2022/04/25 05:54:13;;;;;;;17.52;11.75;;;;;;;9.01;100.00;101112.72;5091733;28;20112;-72
2022/04/25 05:56:39;;;;;;;25.67;11.80;;;;;;;9.05;100.00;101114.56;5093020;28;20028;-71
2022/04/25 05:59:04;;;;;;;27.23;12.88;;;;;;;9.04;100.00;101125.03;5093865;28;20111;-71
2022/04/25 06:01:30;;;;;;;18.23;11.65;;;;;;;9.08;100.00;101127.75;5091193;28;20441;-70
2022/04/25 06:03:55;;;;;;;23.33;11.50;;;;;;;9.07;100.00;101123.34;5092248;28;20028;-71
2022/04/25 06:06:23;;;;;;;21.30;12.30;;;;;;;9.09;100.00;101123.41;5093255;28;20058;-72
2022/04/25 06:08:49;;;;;;;20.17;12.15;;;;;;;9.04;100.00;101125.03;5095990;28;20044;-72
2022/04/25 06:11:14;;;;;;;20.10;12.23;;;;;;;9.04;100.00;101119.78;5091456;28;20107;-71
2022/04/25 06:13:44;;;;;;;21.70;12.05;;;;;;;9.04;100.00;101128.53;5090768;28;20032;-71
2022/04/25 06:16:13;;;;;;;17.83;11.63;;;;;;;9.08;100.00;101127.75;5093819;28;20766;-72
2022/04/25 06:18:38;;;;;;;26.83;13.02;;;;;;;9.13;100.00;101142.75;5091543;28;20057;-72
2022/04/25 06:21:03;;;;;;;25.75;12.63;;;;;;;9.20;100.00;101137.72;5095474;28;20032;-71
2022/04/25 06:23:30;;;;;;;24.65;13.20;;;;;;;9.23;100.00;101136.91;5093950;28;20028;-71
2022/04/25 06:25:56;;;;;;;25.35;14.10;;;;;;;9.27;100.00;101138.78;5093127;28;20061;-71
2022/04/25 06:28:22;;;;;;;25.27;13.82;;;;;;;9.24;100.00;101150.06;5089696;28;20100;-72
2022/04/25 06:30:48;;;;;;;20.00;12.55;;;;;;;9.20;100.00;101136.84;5091562;28;20042;-71
2022/04/25 06:33:13;;;;;;;26.17;12.65;;;;;;;9.27;100.00;101139.66;5094870;28;20020;-71
2022/04/25 06:35:39;;;;;;;25.77;12.38;;;;;;;9.34;100.00;101145.97;5093980;28;20485;-71
2022/04/25 06:38:04;;;;;;;19.80;12.35;;;;;;;9.47;100.00;101146.28;5094620;28;20028;-72
2022/04/25 06:40:29;;;;;;;23.33;12.63;;;;;;;9.47;100.00;101144.56;5094219;28;20032;-72
2022/04/25 06:42:56;;;;;;;20.15;11.80;;;;;;;9.52;100.00;101147.28;5093629;28;20111;-71
2022/04/25 06:45:26;;;;;;;20.60;12.63;;;;;;;9.58;100.00;101152.72;5094682;28;20023;-72
2022/04/25 06:47:53;;;;;;;18.52;12.25;;;;;;;9.58;100.00;101150.09;5092497;28;20114;-72
2022/04/25 06:50:18;;;;;;;23.92;14.30;;;;;;;9.54;100.00;101148.22;5094602;28;20475;-71
2022/04/25 06:52:45;;;;;;;19.63;14.13;;;;;;;9.56;100.00;101159.66;5094421;28;20076;-72
2022/04/25 06:55:10;;;;;;;31.15;15.20;;;;;;;9.50;100.00;101168.25;5092140;28;20034;-71
2022/04/25 06:57:36;;;;;;;27.17;14.82;;;;;;;9.42;100.00;101161.94;5091604;28;20024;-72
2022/04/25 07:00:04;;;;;;;26.92;14.90;;;;;;;9.41;100.00;101168.94;5095096;28;20055;-71
2022/04/25 07:02:30;;;;;;;32.53;15.38;;;;;;;9.30;100.00;101167.72;5093010;28;20032;-70
2022/04/25 07:04:55;;;;;;;26.40;15.23;;;;;;;9.40;100.00;101167.16;5093068;28;20032;-72
2022/04/25 07:07:21;;;;;;;31.02;17.13;;;;;;;9.37;100.00;101169.69;5092809;28;20031;-72
2022/04/25 07:09:48;;;;;;;28.58;16.90;;;;;;;9.36;100.00;101173.16;5094635;28;20028;-71
2022/04/25 07:12:13;;;;;;;20.77;14.45;;;;;;;9.35;100.00;101178.38;5093612;28;20016;-72
2022/04/25 07:14:38;;;;;;;22.27;12.68;;;;;;;9.17;100.00;101178.75;5095681;28;20032;-72
2022/04/25 07:17:04;;;;;;;20.20;13.45;;;;;;;9.09;100.00;101179.44;5092772;28;20365;-71
2022/04/25 07:19:30;;;;;;;20.80;13.00;;;;;;;9.12;100.00;101181.25;5093622;28;20046;-71
2022/04/25 07:30:08;;;;;;;26.27;15.90;;;;;;;9.04;100.00;101186.28;5094565;28;19918;-70
2022/04/25 07:32:37;;;;;;;21.48;14.68;;;;;;;9.09;100.00;101192.56;5092728;28;20361;-71
2022/04/25 07:35:03;;;;;;;28.45;16.73;;;;;;;8.91;100.00;101192.03;5093472;28;20038;-71
2022/04/25 07:37:29;;;;;;;24.70;16.88;;;;;;;9.01;100.00;101185.31;5089193;28;20020;-71
2022/04/25 07:39:56;;;;;;;28.67;17.70;;;;;;;8.96;100.00;101190.41;5096194;28;20020;-70
2022/04/25 07:42:24;;;;;;;26.00;17.05;;;;;;;8.95;100.00;101188.63;5090878;28;21819;-71
2022/04/25 07:44:49;;;;;;;30.05;18.15;;;;;;;8.97;100.00;101194.84;5093592;28;20028;-71
2022/04/25 07:47:15;;;;;;;27.00;17.10;;;;;;;8.89;100.00;101193.72;5093636;28;20023;-70
2022/04/25 07:49:41;;;;;;;24.40;17.50;;;;;;;8.90;100.00;101185.00;5093113;28;20031;-71
2022/04/25 07:52:07;;;;;;;31.42;18.42;;;;;;;8.82;100.00;101197.00;5073527;28;20074;-72
2022/04/25 07:54:33;;;;;;;34.92;18.38;;;;;;;8.93;100.00;101200.84;5091648;28;20036;-71
2022/04/25 07:57:06;;;;;;;35.42;20.35;;;;;;;9.05;100.00;101200.31;5093276;28;20039;-72
2022/04/25 07:59:32;;;;;;;27.48;17.42;;;;;;;8.97;100.00;101199.19;5089642;28;20081;-71
2022/04/25 08:01:57;;;;;;;29.10;18.30;;;;;;;9.01;100.00;101209.81;5091268;28;20028;-71
2022/04/25 08:04:22;;;;;;;28.67;17.60;;;;;;;8.93;100.00;101206.97;5094229;28;20035;-71
2022/04/25 08:06:48;;;;;;;32.75;18.35;;;;;;;8.96;100.00;101205.28;5089945;28;20097;-70
2022/04/25 08:09:15;;;;;;;30.52;17.65;;;;;;;9.05;100.00;101206.44;5090112;28;20078;-80
2022/04/25 08:11:40;;;;;;;34.85;19.67;;;;;;;9.09;100.00;101205.69;5090670;28;20107;-71
2022/04/25 08:19:33;;;;;;;28.23;17.27;;;;;;;9.04;100.00;101209.03;5093320;28;20443;-71
2022/04/25 08:22:00;;;;;;;29.60;17.83;;;;;;;9.13;100.00;101218.88;5090106;28;20107;-71
2022/04/25 08:24:26;;;;;;;28.75;17.52;;;;;;;9.10;100.00;101220.59;5092043;28;20051;-70
2022/04/25 08:26:51;;;;;;;28.73;18.75;;;;;;;9.15;100.00;101222.47;5091612;28;20424;-70
2022/04/25 08:29:16;;;;;;;28.92;18.55;;;;;;;9.17;100.00;101226.00;5089880;28;20024;-71
2022/04/25 08:31:42;;;;;;;33.45;18.67;;;;;;;9.19;100.00;101224.31;5092382;28;20024;-71
2022/04/25 08:34:09;;;;;;;32.45;18.58;;;;;;;9.24;100.00;101231.47;5090218;28;20491;-72
2022/04/25 08:36:35;;;;;;;37.22;20.05;;;;;;;9.18;100.00;101222.53;5082130;28;20391;-71
2022/04/25 08:39:02;;;;;;;29.70;18.92;;;;;;;9.25;100.00;101235.91;5092188;28;20035;-70
2022/04/25 08:41:30;;;;;;;31.90;19.35;;;;;;;9.33;100.00;101233.47;5088613;28;20024;-71
2022/04/25 08:43:57;;;;;;;27.55;17.52;;;;;;;9.41;100.00;101229.34;5090236;28;20556;-70
2022/04/25 08:46:23;;;;;;;28.85;17.98;;;;;;;9.38;100.00;101231.84;5092641;28;20372;-71
2022/04/25 08:48:49;;;;;;;31.83;19.50;;;;;;;9.40;100.00;101235.44;5092064;28;20059;-71
2022/04/25 08:51:16;;;;;;;34.10;19.50;;;;;;;9.47;100.00;101236.50;5092388;28;20024;-71
2022/04/25 08:53:44;;;;;;;27.52;17.88;;;;;;;9.48;100.00;101229.50;5091685;28;20020;-71
2022/04/25 08:56:10;;;;;;;31.40;18.35;;;;;;;9.53;100.00;101233.13;5092364;28;20047;-70
2022/04/25 08:58:39;;;;;;;31.67;18.45;;;;;;;9.62;100.00;101230.75;5091005;28;20387;-70
2022/04/25 09:01:04;;;;;;;30.20;20.13;;;;;;;9.68;100.00;101228.28;5092741;28;20034;-71
2022/04/25 09:03:30;;;;;;;32.47;18.15;;;;;;;9.69;100.00;101237.06;5092859;28;20111;-71
2022/04/25 09:05:55;;;;;;;32.13;19.15;;;;;;;9.75;100.00;101231.97;5092452;28;20037;-71
2022/04/25 09:08:21;;;;;;;25.73;17.40;;;;;;;9.83;100.00;101235.66;5090378;28;20031;-71
2022/04/25 09:10:47;;;;;;;28.50;19.25;;;;;;;9.96;100.00;101236.91;5092104;28;20383;-72
2022/04/25 09:13:13;;;;;;;28.48;16.80;;;;;;;9.87;100.00;101237.53;5092145;28;20031;-70
2022/04/25 09:15:38;;;;;;;28.30;17.95;;;;;;;10.08;100.00;101247.72;5092460;28;20032;-69
2022/04/25 09:18:04;;;;;;;28.58;17.75;;;;;;;10.12;100.00;101254.84;5091434;28;20404;-71
2022/04/25 09:20:30;;;;;;;31.48;16.98;;;;;;;10.02;100.00;101254.56;5092659;28;20023;-71
2022/04/25 09:22:56;;;;;;;24.83;17.05;;;;;;;10.22;100.00;101249.81;5092083;28;20704;-72
2022/04/25 09:25:22;;;;;;;25.25;16.60;;;;;;;10.26;100.00;101251.66;5091125;28;20050;-71
2022/04/25 09:28:06;;;;;;;23.58;15.52;;;;;;;10.27;100.00;101242.91;5092687;28;20035;-70
2022/04/25 09:30:31;;;;;;;25.85;15.13;;;;;;;10.30;100.00;101242.97;5092882;28;20020;-70
2022/04/25 09:32:56;;;;;;;21.73;14.73;;;;;;;10.26;100.00;101241.13;5092425;28;20027;-72
2022/04/25 09:35:38;;;;;;;28.42;16.20;;;;;;;10.22;100.00;101253.31;5092141;28;20085;-71
2022/04/25 09:38:05;;;;;;;25.65;16.02;;;;;;;10.19;100.00;101268.16;5084087;28;20039;-73
2022/04/25 09:40:35;;;;;;;23.80;16.08;;;;;;;10.18;100.00;101269.00;5091778;28;20031;-72
2022/04/25 09:43:13;;;;;;;24.95;15.68;;;;;;;10.09;100.00;101269.63;5091346;28;20531;-72
2022/04/25 09:45:42;;;;;;;21.98;14.00;;;;;;;10.06;100.00;101270.44;5092239;28;20102;-69
2022/04/25 09:48:18;;;;;;;25.98;13.68;;;;;;;9.85;100.00;101270.78;5092256;28;20099;-69
2022/04/25 09:50:58;;;;;;;21.15;13.95;;;;;;;9.86;100.00;101275.22;5092076;28;20059;-69
2022/04/25 09:53:39;;;;;;;26.77;14.80;;;;;;;9.77;100.00;101283.72;5091852;28;20028;-70
2022/04/25 09:56:15;;;;;;;23.35;15.23;;;;;;;9.81;100.00;101283.78;5090867;28;20024;-70
2022/04/25 09:58:42;;;;;;;24.33;15.98;;;;;;;9.69;100.00;101285.25;5091517;28;20056;-69
2022/04/25 10:01:13;;;;;;;20.75;15.45;;;;;;;9.76;100.00;101296.81;5095936;28;20024;-68
2022/04/25 10:03:39;;;;;;;23.83;15.57;;;;;;;9.69;100.00;101285.25;5095244;28;20498;-70
2022/04/25 10:06:05;;;;;;;24.55;15.35;;;;;;;9.65;100.00;101287.75;5096101;28;20099;-70
2022/04/25 10:08:35;;;;;;;23.02;15.40;;;;;;;9.63;100.00;101290.34;5092623;28;20103;-70
2022/04/25 10:11:03;;;;;;;23.83;15.27;;;;;;;9.54;100.00;101282.22;5095700;28;20024;-70
2022/04/25 10:13:31;;;;;;;24.92;17.02;;;;;;;9.62;100.00;101288.56;5095806;28;20337;-70
2022/04/25 10:15:57;;;;;;;29.63;17.83;;;;;;;9.76;100.00;101292.44;5095865;28;20387;-69
2022/04/25 10:18:25;;;;;;;26.33;16.23;;;;;;;9.91;100.00;101289.34;5095780;28;20044;-70
2022/04/25 10:20:50;;;;;;;23.73;16.85;;;;;;;9.86;100.00;101297.94;5094667;28;20051;-69
2022/04/25 10:23:17;;;;;;;26.35;15.95;;;;;;;9.95;100.00;101285.06;5095813;27;20026;-69
2022/04/25 10:25:50;;;;;;;25.08;16.25;;;;;;;10.04;100.00;101282.66;5094608;28;20020;-69
2022/04/25 10:28:34;;;;;;;;;;;;;;;10.17;100.00;101293.50;5093388;28;20047;-69
2022/04/25 10:31:04;;;;;;;22.20;15.53;;;;;;;10.22;100.00;101297.16;5091943;28;19912;-70
2022/04/25 10:33:52;;;;;;;22.65;15.38;;;;;;;10.19;100.00;101297.06;5093136;28;20024;-70
2022/04/25 10:36:36;;;;;;;21.85;15.52;;;;;;;10.19;100.00;101304.97;5095298;28;20028;-70
2022/04/25 10:39:18;;;;;;;27.15;16.60;;;;;;;10.12;100.00;101307.41;5095356;28;20459;-70
2022/04/25 10:44:37;;;;;;;21.02;14.60;;;;;;;9.95;100.00;101308.72;5095037;28;20540;-70
2022/04/25 10:47:05;;;;;;;25.63;14.77;;;;;;;9.94;100.00;101312.19;5094471;28;20040;-69
2022/04/25 10:49:37;;;;;;;19.58;12.95;;;;;;;9.92;100.00;101319.16;5092771;28;20063;-69
2022/04/25 10:52:04;;;;;;;21.73;13.38;;;;;;;9.97;100.00;101314.91;5095205;28;20452;-71
2022/04/25 10:55:08;;;;;;;21.45;14.30;;;;;;;9.98;100.00;101316.69;5094770;28;20067;-71
2022/04/25 10:57:34;;;;;;;19.25;12.77;;;;;;;10.05;100.00;101321.28;5090969;28;20471;-72
2022/04/25 10:59:59;;;;;;;19.95;13.23;;;;;;;10.02;100.00;101329.06;5094233;28;20040;-69
2022/04/25 11:02:26;;;;;;;19.23;13.73;;;;;;;10.00;100.00;101330.78;5095652;28;20078;-69
2022/04/25 11:05:27;;;;;;;23.42;14.32;;;;;;;9.93;100.00;101327.09;5090127;28;20438;-69
2022/04/25 11:08:18;;;;;;;25.25;14.85;;;;;;;9.87;100.00;101341.78;5077171;28;20040;-69
2022/04/25 11:10:45;;;;;;;19.65;14.23;;;;;;;10.00;100.00;101341.28;5092757;28;20417;-70
2022/04/25 11:13:15;;;;;;;26.15;15.88;;;;;;;10.02;100.00;101336.94;5093211;28;20073;-70
2022/04/25 11:15:48;;;;;;;23.58;14.02;;;;;;;9.99;100.00;101346.50;5093665;28;20055;-70
2022/04/25 11:18:33;;;;;;;22.52;14.68;;;;;;;9.91;100.00;101346.28;5091888;28;20051;-71
2022/04/25 11:21:05;;;;;;;22.67;15.32;;;;;;;9.88;100.00;101344.47;5089780;28;20110;-71
2022/04/25 11:23:32;;;;;;;23.67;15.20;;;;;;;9.89;100.00;101347.97;5105720;28;20031;-72
2022/04/25 11:26:01;;;;;;;21.98;14.43;;;;;;;9.85;100.00;101343.47;5088207;28;20026;-70
2022/04/25 11:28:28;;;;;;;24.02;15.35;;;;;;;9.94;100.00;101343.72;5092311;28;20031;-70
2022/04/25 11:31:13;;;;;;;26.30;15.80;;;;;;;9.87;100.00;101352.31;5092693;28;20028;-69
2022/04/25 11:33:47;;;;;;;25.45;15.48;;;;;;;9.83;100.00;101353.06;5093560;28;20024;-69
2022/04/25 11:36:13;;;;;;;21.73;15.15;;;;;;;9.85;100.00;101351.34;5090746;28;20489;-68
2022/04/25 11:41:24;;;;;;;23.55;15.65;;;;;;;9.76;100.00;101352.88;5091443;28;20169;-69
2022/04/25 11:43:50;;;;;;;28.95;17.50;;;;;;;9.86;100.00;101353.16;5089716;28;20036;-69